메인 페이지
METAR-TAF:

METAR-TAF

공항 :

Houma-Terrebonne Airport

Houma, 루이지애나, 미국

위도: 29-34N, 경도: 090-40W, 고도: 3m

현재 날씨관측

예보는 41분 전, 16:50시(UTC)에 발표되었습니다.
북북동9kt
온도 25°C
습도 89%
기압 1021 hPa
시정: 6.4km
고도 600ft 상공 흐림
박무

METAR: KHUM 171650Z 03009KT 4SM BR OVC006 25/23 A3016

시각: 12:31 (17:31 UTC)

예보

예보는 1 시간 33분 전, 15:58시(UTC)에 발표되었습니다.
예보 대상 시간: 17일 16시부터 18일 12시까지 (UTC)
북동10kt
시정: 6.4km
고도 400ft 상공 흐림
박무
17일 2000시부터 (UTC)
북동10kt
시정: 10km
고도 2500ft 상공 구름 많음
고도 5000ft 상공 흐림
18일 0300시부터 (UTC)
북북동8kt
시정: 10km
고도 6000ft 상공 구름 많음

TAF: KHUM 171558Z 1716/1812 05010KT 4SM BR OVC004 FM172000 05010KT P6SM BKN025 OVC050 FM180300 03008KT P6SM BKN060

4,000개 이상의 공항 관측 자료 및 예보 (METAR 및 TAF 보고).

지도상에서 검색 가능한 기상관측소가 노란 점과 빨간 점으로 표시되어 있습니다.

기상관측소 명을 보려면 표시 위로 마우스를 이동하세요.

날씨 관측과 예보를 보려면 클릭하세요.

지도 변경 : 확대하려면 엑스 표시가 있는 녹색 버튼, 축소하려면 빼기 표시가 있는 녹색 버튼, 다음 페이지의 지도를 보려면 녹색 화살표를 클릭하세요.


METAR-TAF: